createdAt,value
2022-10-27T00:00:58.185Z,101952.09
2022-10-27T00:03:26.037Z,101947.06
2022-10-27T00:05:53.247Z,101950.69
2022-10-27T00:08:22.713Z,101952.72
2022-10-27T00:10:59.813Z,101952.88
2022-10-27T00:13:27.893Z,101949.53
2022-10-27T00:16:06.788Z,101946.22
2022-10-27T00:18:34.411Z,101949.09
2022-10-27T00:21:31.179Z,101947.69
2022-10-27T00:23:58.353Z,101949.63
2022-10-27T00:26:25.542Z,101947.22
2022-10-27T00:28:52.769Z,101950.03
2022-10-27T00:31:22.686Z,101950.19
2022-10-27T00:33:51.506Z,101945.06
2022-10-27T00:36:23.180Z,101954.84
2022-10-27T00:38:55.401Z,101952.34
2022-10-27T00:41:40.567Z,101966.59
2022-10-27T00:44:40.057Z,101962.41
2022-10-27T00:47:10.232Z,101961.63
2022-10-27T00:50:14.514Z,101969.59
2022-10-27T00:53:11.595Z,101969.69
2022-10-27T00:55:39.968Z,101967.13
2022-10-27T00:58:14.912Z,101968.91
2022-10-27T01:00:43.548Z,101972.47
2022-10-27T01:03:16.173Z,101969.16
2022-10-27T01:05:45.651Z,101972.69
2022-10-27T01:08:14.719Z,101978.03
2022-10-27T01:10:41.891Z,101979.81
2022-10-27T01:13:10.222Z,101970.22
2022-10-27T01:16:18.185Z,101975.56
2022-10-27T01:19:49.727Z,101974.78
2022-10-27T01:22:44.825Z,101979.91
2022-10-27T01:26:10.904Z,101978.19
2022-10-27T01:29:34.548Z,101984.28
2022-10-27T01:32:35.076Z,101981.66
2022-10-27T01:35:46.131Z,101986.78
2022-10-27T01:38:31.419Z,101987.66
2022-10-27T01:41:47.877Z,101979.59
2022-10-27T01:44:38.818Z,101991.06
2022-10-27T01:47:07.749Z,101990.13
2022-10-27T01:49:42.857Z,101990.13
2022-10-27T01:52:50.774Z,101979.53
2022-10-27T01:55:50.710Z,101980.38
2022-10-27T01:59:06.944Z,101982.00
2022-10-27T02:02:26.852Z,101984.56
2022-10-27T02:05:17.530Z,101987.13
2022-10-27T02:08:08.363Z,101981.00
2022-10-27T02:11:04.015Z,101980.91
2022-10-27T02:13:36.740Z,101974.72
2022-10-27T02:16:23.270Z,101972.09
2022-10-27T02:19:02.828Z,101971.19
2022-10-27T02:21:34.499Z,101971.19
2022-10-27T02:24:03.501Z,101967.66
2022-10-27T02:26:56.802Z,101966.75
2022-10-27T02:29:38.351Z,101957.28
2022-10-27T02:32:13.323Z,101959.00
2022-10-27T02:34:43.499Z,101967.75
2022-10-27T02:37:19.533Z,101953.81
2022-10-27T02:39:46.851Z,101961.63
2022-10-27T02:42:14.117Z,101961.63
2022-10-27T02:44:41.323Z,101960.72
2022-10-27T02:47:10.071Z,101962.63
2022-10-27T02:49:37.446Z,101958.16
2022-10-27T02:52:04.901Z,101951.16
2022-10-27T02:54:32.579Z,101957.34
2022-10-27T02:56:59.990Z,101948.63
2022-10-27T02:59:27.351Z,101946.81
2022-10-27T03:01:54.737Z,101938.16
2022-10-27T03:04:21.966Z,101940.78
2022-10-27T03:06:49.243Z,101939.00
2022-10-27T03:09:16.422Z,101936.44
2022-10-27T03:11:46.140Z,101936.44
2022-10-27T03:14:13.998Z,101937.38
2022-10-27T03:16:41.294Z,101931.31
2022-10-27T03:19:08.458Z,101934.03
2022-10-27T03:21:35.633Z,101927.06
2022-10-27T03:24:02.842Z,101930.63
2022-10-27T03:26:30.022Z,101931.63
2022-10-27T03:28:57.296Z,101924.66
2022-10-27T03:31:24.502Z,101923.03
2022-10-27T03:33:51.720Z,101923.19
2022-10-27T03:36:18.858Z,101926.66
2022-10-27T03:38:46.041Z,101924.25
2022-10-27T03:41:13.161Z,101931.31
2022-10-27T03:43:40.511Z,101929.66
2022-10-27T03:46:10.216Z,101930.69
2022-10-27T03:48:37.816Z,101929.72
2022-10-27T03:51:05.007Z,101926.34
2022-10-27T03:53:32.158Z,101918.38
2022-10-27T03:55:59.383Z,101911.53
2022-10-27T03:58:26.725Z,101913.09
2022-10-27T04:00:54.015Z,101919.22
2022-10-27T04:03:21.298Z,101912.09
2022-10-27T04:05:51.697Z,101908.38
2022-10-27T04:08:18.984Z,101915.34
2022-10-27T04:10:46.711Z,101914.50
2022-10-27T04:13:13.987Z,101916.28
2022-10-27T04:15:41.161Z,101916.44
2022-10-27T04:18:10.082Z,101916.44
2022-10-27T04:20:37.263Z,101921.69
2022-10-27T04:23:04.463Z,101917.38
2022-10-27T04:25:31.649Z,101927.97
2022-10-27T04:28:07.843Z,101927.97
2022-10-27T04:30:36.866Z,101926.41
2022-10-27T04:33:04.630Z,101923.78
2022-10-27T04:35:31.993Z,101929.03
2022-10-27T04:37:59.203Z,101926.56
2022-10-27T04:40:26.607Z,101941.38
2022-10-27T04:42:53.907Z,101942.34
2022-10-27T04:45:21.736Z,101940.72
2022-10-27T04:47:49.156Z,101941.66
2022-10-27T04:50:18.224Z,101940.00
2022-10-27T04:53:02.032Z,101945.47
2022-10-27T04:55:32.932Z,101948.31
2022-10-27T04:58:03.115Z,101952.88
2022-10-27T05:03:04.971Z,101945.34
2022-10-27T05:05:32.247Z,101951.59
2022-10-27T05:08:03.017Z,101951.75
2022-10-27T05:10:33.987Z,101950.06
2022-10-27T05:13:02.348Z,101948.47
2022-10-27T05:15:29.939Z,101939.75
2022-10-27T05:17:57.126Z,101938.09
2022-10-27T05:20:24.436Z,101933.81
2022-10-27T05:22:51.642Z,101935.69
2022-10-27T05:25:18.797Z,101939.97
2022-10-27T05:27:46.158Z,101946.13
2022-10-27T05:30:15.807Z,101935.69
2022-10-27T05:32:44.942Z,101939.16
2022-10-27T05:35:14.849Z,101938.38
2022-10-27T05:37:46.954Z,101932.28
2022-10-27T05:40:14.949Z,101933.97
2022-10-27T05:42:55.419Z,101931.34
2022-10-27T05:45:24.738Z,101931.41
2022-10-27T05:48:07.788Z,101936.44
2022-10-27T05:50:36.313Z,101937.19
2022-10-27T05:53:04.414Z,101935.41
2022-10-27T05:55:31.653Z,101933.47
2022-10-27T05:58:02.979Z,101935.03
2022-10-27T06:00:36.518Z,101929.63
2022-10-27T06:03:08.119Z,101926.94
2022-10-27T06:05:37.554Z,101928.72
2022-10-27T06:08:05.168Z,101921.66
2022-10-27T06:10:32.506Z,101928.66
2022-10-27T06:13:05.715Z,101926.84
2022-10-27T06:15:35.058Z,101920.69
2022-10-27T06:18:03.242Z,101925.00
2022-10-27T06:20:30.978Z,101923.25
2022-10-27T06:22:58.457Z,101914.47
2022-10-27T06:25:26.158Z,101910.84
2022-10-27T06:27:53.513Z,101907.34
2022-10-27T06:30:20.980Z,101908.22
2022-10-27T06:32:48.198Z,101916.88
2022-10-27T06:35:15.507Z,101914.25
2022-10-27T06:37:46.727Z,101911.63
2022-10-27T06:40:19.027Z,101925.63
2022-10-27T06:43:05.795Z,101923.00
2022-10-27T06:45:34.885Z,101914.19
2022-10-27T06:48:05.911Z,101913.03
2022-10-27T06:50:34.772Z,101904.19
2022-10-27T06:53:02.795Z,101903.44
2022-10-27T06:55:31.588Z,101904.28
2022-10-27T06:57:58.840Z,101906.97
2022-10-27T07:00:26.146Z,101912.25
2022-10-27T07:02:53.606Z,101906.97
2022-10-27T07:05:21.233Z,101897.25
2022-10-27T07:07:51.569Z,101900.66
2022-10-27T07:10:21.270Z,101894.53
2022-10-27T07:12:59.035Z,101890.97
2022-10-27T07:15:33.813Z,101890.03
2022-10-27T07:18:08.624Z,101885.69
2022-10-27T07:20:39.850Z,101892.63
2022-10-27T07:23:10.552Z,101896.91
2022-10-27T07:25:39.145Z,101899.38
2022-10-27T07:28:06.830Z,101900.16
2022-10-27T07:30:39.490Z,101902.63
2022-10-27T07:33:07.015Z,101899.94
2022-10-27T07:35:34.880Z,101906.91
2022-10-27T07:38:02.791Z,101902.41
2022-10-27T07:40:33.179Z,101899.56
2022-10-27T07:43:06.640Z,101901.19
2022-10-27T07:45:38.894Z,101904.53
2022-10-27T07:48:12.254Z,101899.72
2022-10-27T07:50:40.508Z,101898.56
2022-10-27T07:53:08.481Z,101908.78
2022-10-27T07:55:37.535Z,101901.50
2022-10-27T07:58:16.376Z,101913.44
2022-10-27T08:00:47.880Z,101904.16
2022-10-27T08:03:18.951Z,101897.28
2022-10-27T08:05:47.073Z,101898.44
2022-10-27T08:08:16.188Z,101897.78
2022-10-27T08:10:45.713Z,101896.63
2022-10-27T08:13:13.335Z,101898.50
2022-10-27T08:15:42.631Z,101887.84
2022-10-27T08:18:11.488Z,101894.03
2022-10-27T08:20:44.284Z,101895.16
2022-10-27T08:23:20.412Z,101894.22
2022-10-27T08:25:48.360Z,101900.19
2022-10-27T08:28:15.974Z,101903.41
2022-10-27T08:30:51.818Z,101905.34
2022-10-27T08:33:21.619Z,101904.34
2022-10-27T08:35:51.278Z,101890.88
2022-10-27T08:38:19.664Z,101883.53
2022-10-27T08:41:34.343Z,101879.78
2022-10-27T08:44:26.975Z,101872.50
2022-10-27T08:47:05.433Z,101872.25
2022-10-27T08:50:04.785Z,101882.72
2022-10-27T08:53:05.104Z,101880.69
2022-10-27T08:55:52.345Z,101874.34
2022-10-27T08:58:44.934Z,101870.31
2022-10-27T09:01:46.667Z,101864.16
2022-10-27T09:04:38.054Z,101866.25
2022-10-27T09:07:28.409Z,101868.53
2022-10-27T09:10:06.124Z,101869.75
2022-10-27T09:13:35.050Z,101861.25
2022-10-27T09:16:12.639Z,101856.25
2022-10-27T09:18:58.536Z,101851.25
2022-10-27T09:21:29.921Z,101850.56
2022-10-27T09:24:13.296Z,101842.69
2022-10-27T09:26:45.555Z,101826.13
2022-10-27T09:29:22.907Z,101827.25
2022-10-27T09:32:07.742Z,101830.94
2022-10-27T09:34:53.537Z,101831.19
2022-10-27T09:37:21.408Z,101834.59
2022-10-27T09:39:54.215Z,101832.94
2022-10-27T09:42:22.193Z,101836.69
2022-10-27T09:45:00.756Z,101839.13
2022-10-27T09:47:40.239Z,101822.81
2022-10-27T09:50:36.697Z,101827.59
2022-10-27T09:53:05.150Z,101828.13
2022-10-27T09:55:53.670Z,101814.13
2022-10-27T09:58:21.486Z,101804.13
2022-10-27T10:01:01.394Z,101808.53
2022-10-27T10:03:29.029Z,101802.94
2022-10-27T10:06:07.448Z,101807.81
2022-10-27T10:08:36.830Z,101811.91
2022-10-27T10:11:19.532Z,101805.53
2022-10-27T10:14:04.036Z,101810.72
2022-10-27T10:16:33.237Z,101813.81
2022-10-27T10:19:22.775Z,101814.22
2022-10-27T10:22:00.815Z,101808.97
2022-10-27T10:24:36.378Z,101787.63
2022-10-27T10:27:06.806Z,101792.06
2022-10-27T10:29:50.633Z,101793.72
2022-10-27T10:32:29.130Z,101789.97
2022-10-27T10:34:56.950Z,101793.13
2022-10-27T10:37:37.408Z,101788.19
2022-10-27T10:40:19.287Z,101776.13
2022-10-27T10:43:12.019Z,101771.06
2022-10-27T10:45:41.205Z,101781.63
2022-10-27T10:48:48.068Z,101784.88
2022-10-27T10:51:35.955Z,101788.16
2022-10-27T10:54:21.653Z,101775.22
2022-10-27T10:56:54.585Z,101775.59
2022-10-27T10:59:29.724Z,101768.22
2022-10-27T11:02:29.372Z,101767.25
2022-10-27T11:05:11.858Z,101764.34
2022-10-27T11:07:41.079Z,101761.44
2022-10-27T11:10:21.817Z,101767.34
2022-10-27T11:13:06.985Z,101757.31
2022-10-27T11:15:47.861Z,101754.06
2022-10-27T11:18:50.271Z,101756.81
2022-10-27T11:21:42.338Z,101760.72
2022-10-27T11:24:25.449Z,101763.00
2022-10-27T11:27:07.809Z,101765.78
2022-10-27T11:30:06.434Z,101771.22
2022-10-27T11:33:09.805Z,101760.47
2022-10-27T11:36:19.078Z,101749.94
2022-10-27T11:39:16.162Z,101748.28
2022-10-27T11:42:32.475Z,101746.44
2022-10-27T11:45:19.492Z,101745.59
2022-10-27T11:47:58.346Z,101745.72
2022-10-27T11:50:53.415Z,101742.81
2022-10-27T11:53:21.279Z,101740.03
2022-10-27T11:56:34.421Z,101731.09
2022-10-27T11:59:48.030Z,101726.22
2022-10-27T12:03:13.692Z,101733.50
2022-10-27T12:06:29.214Z,101741.72
2022-10-27T12:09:49.420Z,101732.16
2022-10-27T12:12:35.909Z,101718.72
2022-10-27T12:16:11.075Z,101713.78
2022-10-27T12:18:57.087Z,101711.75
2022-10-27T12:21:50.547Z,101702.66
2022-10-27T12:24:38.702Z,101703.66
2022-10-27T12:27:41.744Z,101701.72
2022-10-27T12:30:21.652Z,101703.53
2022-10-27T12:33:06.038Z,101700.38
2022-10-27T12:35:56.958Z,101693.59
2022-10-27T12:38:51.962Z,101689.47
2022-10-27T12:42:01.423Z,101693.47
2022-10-27T12:44:53.443Z,101668.78
2022-10-27T12:47:42.898Z,101668.91
2022-10-27T12:50:49.824Z,101655.72
2022-10-27T12:54:33.045Z,101653.91
2022-10-27T12:57:42.876Z,101643.66
2022-10-27T13:00:18.085Z,101647.47
2022-10-27T13:03:31.300Z,101652.09
2022-10-27T13:06:55.424Z,101647.72
2022-10-27T13:09:37.380Z,101648.97
2022-10-27T13:12:25.794Z,101652.34
2022-10-27T13:15:04.214Z,101643.53
2022-10-27T13:18:37.976Z,101637.72
2022-10-27T13:21:24.162Z,101631.53
2022-10-27T13:24:25.878Z,101621.75
2022-10-27T13:27:14.188Z,101622.69
2022-10-27T13:30:07.033Z,101621.38
2022-10-27T13:32:49.531Z,101619.78
2022-10-27T13:35:20.732Z,101617.50
2022-10-27T13:37:59.717Z,101616.94
2022-10-27T13:40:26.793Z,101622.25
2022-10-27T13:43:37.618Z,101601.78
2022-10-27T13:46:04.895Z,101606.88
2022-10-27T13:48:34.424Z,101597.78
2022-10-27T13:52:15.772Z,101603.38
2022-10-27T13:55:20.275Z,101596.59
2022-10-27T13:57:59.112Z,101590.44
2022-10-27T14:01:19.525Z,101586.09
2022-10-27T14:04:49.936Z,101588.28
2022-10-27T14:07:18.807Z,101583.88
2022-10-27T14:09:50.892Z,101584.00
2022-10-27T14:12:37.630Z,101595.03
2022-10-27T14:15:27.654Z,101596.84
2022-10-27T14:17:57.630Z,101593.81
2022-10-27T14:20:38.559Z,101596.69
2022-10-27T14:23:16.919Z,101617.97
2022-10-27T14:25:44.674Z,101612.91
2022-10-27T14:28:23.923Z,101598.03
2022-10-27T14:31:20.702Z,101582.66
2022-10-27T14:33:48.390Z,101581.44
2022-10-27T14:36:34.046Z,101601.16
2022-10-27T14:39:26.414Z,101596.94
2022-10-27T14:42:02.447Z,101587.53
2022-10-27T14:44:35.793Z,101596.22
2022-10-27T14:47:15.608Z,101598.88
2022-10-27T14:49:58.882Z,101595.00
2022-10-27T14:52:50.590Z,101598.50
2022-10-27T14:55:38.940Z,101604.06
2022-10-27T14:58:21.141Z,101614.72
2022-10-27T15:00:51.725Z,101616.28
2022-10-27T15:03:18.905Z,101614.59
2022-10-27T15:05:50.111Z,101609.97
2022-10-27T15:08:25.838Z,101616.16
2022-10-27T15:11:00.217Z,101617.38
2022-10-27T15:13:28.353Z,101617.38
2022-10-27T15:15:59.127Z,101628.97
2022-10-27T15:18:43.425Z,101635.28
2022-10-27T15:21:20.306Z,101630.22
2022-10-27T15:23:56.064Z,101635.69
2022-10-27T15:26:29.546Z,101634.09
2022-10-27T15:29:15.942Z,101635.19
2022-10-27T15:31:46.627Z,101629.03
2022-10-27T15:34:38.508Z,101624.66
2022-10-27T15:37:26.293Z,101612.47
2022-10-27T15:39:56.149Z,101620.59
2022-10-27T15:42:35.984Z,101606.16
2022-10-27T15:45:39.618Z,101615.97
2022-10-27T15:48:32.088Z,101608.13
2022-10-27T15:51:17.454Z,101609.34
2022-10-27T15:53:55.108Z,101604.88
2022-10-27T15:56:40.935Z,101610.19
2022-10-27T15:59:28.056Z,101620.84
2022-10-27T16:02:05.755Z,101625.41
2022-10-27T16:04:40.104Z,101627.25
2022-10-27T16:07:13.173Z,101635.34
2022-10-27T16:09:49.813Z,101630.16
2022-10-27T16:12:41.689Z,101633.88
2022-10-27T16:15:25.305Z,101634.88
2022-10-27T16:17:58.527Z,101628.94
2022-10-27T16:20:34.271Z,101640.31
2022-10-27T16:23:01.791Z,101631.47
2022-10-27T16:25:33.456Z,101636.91
2022-10-27T16:28:05.766Z,101642.25
2022-10-27T16:30:37.114Z,101630.53
2022-10-27T16:33:05.510Z,101638.75
2022-10-27T16:35:32.679Z,101646.00
2022-10-27T16:38:01.065Z,101647.94
2022-10-27T16:40:28.732Z,101640.91
2022-10-27T16:42:59.996Z,101640.31
2022-10-27T16:45:27.198Z,101641.63
2022-10-27T16:47:54.865Z,101647.19
2022-10-27T16:50:22.986Z,101647.31
2022-10-27T16:52:56.247Z,101655.06
2022-10-27T16:55:23.937Z,101660.88
2022-10-27T16:57:56.479Z,101652.63
2022-10-27T17:00:24.100Z,101656.53
2022-10-27T17:02:51.317Z,101655.91
2022-10-27T17:05:18.614Z,101657.13
2022-10-27T17:07:46.978Z,101653.94
2022-10-27T17:10:16.669Z,101657.84
2022-10-27T17:12:44.219Z,101659.97
2022-10-27T17:15:11.505Z,101651.41
2022-10-27T17:17:38.761Z,101658.91
2022-10-27T17:20:06.521Z,101647.75
2022-10-27T17:22:33.925Z,101648.97
2022-10-27T17:25:01.151Z,101650.16
2022-10-27T17:27:28.382Z,101644.25
2022-10-27T17:29:55.510Z,101647.13
2022-10-27T17:32:22.740Z,101643.00
2022-10-27T17:34:49.918Z,101641.50
2022-10-27T17:37:17.111Z,101645.28
2022-10-27T17:39:44.278Z,101641.97
2022-10-27T17:42:11.734Z,101644.88
2022-10-27T17:44:38.919Z,101650.41
2022-10-27T17:47:06.111Z,101647.25
2022-10-27T17:49:33.382Z,101644.94
2022-10-27T17:52:02.218Z,101643.72
2022-10-27T17:54:29.433Z,101633.47
2022-10-27T17:56:56.545Z,101637.41
2022-10-27T17:59:23.733Z,101632.69
2022-10-27T18:01:51.168Z,101644.47
2022-10-27T18:04:18.468Z,101642.25
2022-10-27T18:06:45.771Z,101633.81
2022-10-27T18:09:13.599Z,101631.50
2022-10-27T18:11:42.095Z,101643.28
2022-10-27T18:14:18.757Z,101645.31
2022-10-27T18:16:46.187Z,101650.00
2022-10-27T18:19:16.207Z,101638.00
2022-10-27T18:21:47.850Z,101641.72
2022-10-27T18:24:17.137Z,101643.72
2022-10-27T18:26:48.196Z,101640.47
2022-10-27T18:29:18.607Z,101646.09
2022-10-27T18:31:48.368Z,101641.97
2022-10-27T18:34:16.888Z,101635.16
2022-10-27T18:36:45.560Z,101641.44
2022-10-27T18:39:18.644Z,101628.84
2022-10-27T18:41:49.101Z,101623.44
2022-10-27T18:44:17.079Z,101621.84
2022-10-27T18:46:44.413Z,101622.91
2022-10-27T18:49:20.365Z,101625.88
2022-10-27T18:51:52.735Z,101636.59
2022-10-27T18:54:19.990Z,101635.03
2022-10-27T18:56:47.178Z,101633.31
2022-10-27T18:59:14.536Z,101631.59
2022-10-27T19:01:43.410Z,101630.88
2022-10-27T19:04:10.802Z,101634.59
2022-10-27T19:06:38.514Z,101635.56
2022-10-27T19:09:06.475Z,101632.03
2022-10-27T19:11:36.168Z,101634.91
2022-10-27T19:14:04.801Z,101630.91
2022-10-27T19:16:32.776Z,101631.63
2022-10-27T19:19:00.729Z,101627.28
2022-10-27T19:21:29.755Z,101628.38
2022-10-27T19:24:02.473Z,101625.59
2022-10-27T19:26:34.005Z,101623.91
2022-10-27T19:29:01.302Z,101622.97
2022-10-27T19:31:36.278Z,101622.97
2022-10-27T19:34:04.962Z,101628.38
2022-10-27T19:36:35.420Z,101631.94
2022-10-27T19:39:07.920Z,101634.72
2022-10-27T19:41:36.809Z,101638.19
2022-10-27T19:44:05.930Z,101629.41
2022-10-27T19:46:33.630Z,101631.75
2022-10-27T19:49:05.685Z,101631.94
2022-10-27T19:51:39.491Z,101631.84
2022-10-27T19:54:14.183Z,101628.25
2022-10-27T19:56:49.688Z,101637.03
2022-10-27T19:59:24.183Z,101625.50
2022-10-27T20:01:54.104Z,101621.66
2022-10-27T20:04:21.710Z,101630.25
2022-10-27T20:06:49.361Z,101634.69
2022-10-27T20:09:20.866Z,101628.56
2022-10-27T20:11:49.273Z,101630.38
2022-10-27T20:14:17.119Z,101632.25
2022-10-27T20:16:47.288Z,101633.22
2022-10-27T20:19:19.438Z,101627.16
2022-10-27T20:21:48.766Z,101635.34
2022-10-27T20:24:17.647Z,101635.44
2022-10-27T20:26:49.503Z,101640.94
2022-10-27T20:29:21.585Z,101642.75
2022-10-27T20:31:51.483Z,101647.31
2022-10-27T20:34:18.746Z,101648.28
2022-10-27T20:36:46.262Z,101640.13
2022-10-27T20:39:15.120Z,101647.22
2022-10-27T20:41:42.532Z,101652.41
2022-10-27T20:44:09.877Z,101652.53
2022-10-27T20:46:37.250Z,101647.22
2022-10-27T20:49:04.423Z,101648.16
2022-10-27T20:51:33.552Z,101640.53
2022-10-27T20:54:02.965Z,101639.69
2022-10-27T20:56:35.523Z,101640.53
2022-10-27T20:59:05.242Z,101637.88
2022-10-27T21:01:43.516Z,101626.47
2022-10-27T21:04:17.646Z,101633.53
2022-10-27T21:06:49.422Z,101630.38
2022-10-27T21:09:21.699Z,101642.88
2022-10-27T21:11:49.547Z,101636.84
2022-10-27T21:14:17.859Z,101628.16
2022-10-27T21:16:50.521Z,101629.31
2022-10-27T21:19:19.341Z,101621.81
2022-10-27T21:21:47.057Z,101623.78
2022-10-27T21:24:17.021Z,101622.97
2022-10-27T21:26:45.532Z,101615.00
2022-10-27T21:29:13.216Z,101617.66
2022-10-27T21:31:42.204Z,101615.00
2022-10-27T21:34:09.513Z,101614.19
2022-10-27T21:36:36.748Z,101602.72
2022-10-27T21:39:08.694Z,101606.34
2022-10-27T21:41:36.760Z,101599.34
2022-10-27T21:44:04.514Z,101612.25
2022-10-27T21:46:32.437Z,101604.94
2022-10-27T21:49:02.056Z,101608.34
2022-10-27T21:51:30.806Z,101613.53
2022-10-27T21:54:04.227Z,101610.13
2022-10-27T21:56:35.442Z,101616.94
2022-10-27T21:59:03.772Z,101606.53
2022-10-27T22:01:31.598Z,101610.13
2022-10-27T22:03:59.067Z,101611.09
2022-10-27T22:06:34.410Z,101605.16
2022-10-27T22:09:02.248Z,101605.25
2022-10-27T22:11:36.417Z,101599.34
2022-10-27T22:14:04.656Z,101604.75
2022-10-27T22:16:34.181Z,101608.41
2022-10-27T22:19:05.837Z,101614.66
2022-10-27T22:21:39.179Z,101612.84
2022-10-27T22:24:08.169Z,101603.97
2022-10-27T22:26:38.138Z,101611.03
2022-10-27T22:29:05.320Z,101608.59
2022-10-27T22:31:32.796Z,101609.78
2022-10-27T22:34:02.009Z,101608.19
2022-10-27T22:36:30.281Z,101595.16
2022-10-27T22:39:02.165Z,101584.88
2022-10-27T22:41:32.758Z,101591.34
2022-10-27T22:44:00.130Z,101588.25
2022-10-27T22:46:31.985Z,101584.31
2022-10-27T22:48:59.932Z,101576.91
2022-10-27T22:51:28.822Z,101576.38
2022-10-27T22:53:58.075Z,101574.03
2022-10-27T22:56:31.883Z,101576.97
2022-10-27T22:59:03.597Z,101563.13
2022-10-27T23:01:38.686Z,101571.47
2022-10-27T23:04:12.290Z,101564.88
2022-10-27T23:06:39.664Z,101575.00
2022-10-27T23:09:18.247Z,101571.06
2022-10-27T23:11:47.160Z,101572.28
2022-10-27T23:14:16.849Z,101577.88
2022-10-27T23:16:44.905Z,101573.94
2022-10-27T23:19:13.983Z,101568.72
2022-10-27T23:21:41.310Z,101575.16
2022-10-27T23:24:08.764Z,101575.34
2022-10-27T23:26:39.201Z,101565.75
2022-10-27T23:29:13.576Z,101577.97
2022-10-27T23:31:43.295Z,101577.16
2022-10-27T23:34:12.410Z,101572.81
2022-10-27T23:36:39.822Z,101565.84
2022-10-27T23:39:07.174Z,101571.22
2022-10-27T23:41:34.460Z,101571.31
2022-10-27T23:44:02.590Z,101567.91
2022-10-27T23:46:30.518Z,101567.25
2022-10-27T23:48:59.248Z,101564.81
2022-10-27T23:51:27.328Z,101570.38
2022-10-27T23:53:58.141Z,101560.13
2022-10-27T23:56:26.072Z,101566.53
2022-10-27T23:58:53.397Z,101566.81
